Авиационная погода в Хомутово

Регион: 
Погода METAR: 
UHSS 171600Z 14002MPS 9999 BKN020CB 14/13 Q1014 R19/290060 NOSIG RMK MT OBSC QFE759/1012
Время наблюдения
2021-09-17T16:00:00Z
Температура C
14.0
Точка росы
13.0
Направление ветра
140
Скорость ветра (узлы)
4
Метео видимость
6.21
Явления погоды
Условия полета
MVFR
Аэропорт подробнее: